Map

Track Data

SID SEASON NUMBER BASIN SUBBASIN NAME ISO_TIME NATURE LAT LON WMO_WIND WMO_PRES WMO_AGENCY TRACK_TYPE DIST2LAND LANDFALL IFLAG USA_AGENCY USA_ATCF_ID USA_LAT USA_LON USA_RECORD USA_STATUS USA_WIND USA_PRES USA_SSHS USA_R34_NE USA_R34_SE USA_R34_SW USA_R34_NW USA_R50_NE USA_R50_SE USA_R50_SW USA_R50_NW USA_R64_NE USA_R64_SE USA_R64_SW USA_R64_NW USA_POCI USA_ROCI USA_RMW USA_EYE TOKYO_LAT TOKYO_LON TOKYO_GRADE TOKYO_WIND TOKYO_PRES TOKYO_R50_DIR TOKYO_R50_LONG TOKYO_R50_SHORT TOKYO_R30_DIR TOKYO_R30_LONG TOKYO_R30_SHORT TOKYO_LAND CMA_LAT CMA_LON CMA_CAT CMA_WIND CMA_PRES HKO_LAT HKO_LON HKO_CAT HKO_WIND HKO_PRES NEWDELHI_LAT NEWDELHI_LON NEWDELHI_GRADE NEWDELHI_WIND NEWDELHI_PRES NEWDELHI_CI NEWDELHI_DP NEWDELHI_POCI REUNION_LAT REUNION_LON REUNION_TYPE REUNION_WIND REUNION_PRES REUNION_TNUM REUNION_CI REUNION_RMW REUNION_R34_NE REUNION_R34_SE REUNION_R34_SW REUNION_R34_NW REUNION_R50_NE REUNION_R50_SE REUNION_R50_SW REUNION_R50_NW REUNION_R64_NE REUNION_R64_SE REUNION_R64_SW REUNION_R64_NW BOM_LAT BOM_LON BOM_TYPE BOM_WIND BOM_PRES BOM_TNUM BOM_CI BOM_RMW BOM_R34_NE BOM_R34_SE BOM_R34_SW BOM_R34_NW BOM_R50_NE BOM_R50_SE BOM_R50_SW BOM_R50_NW BOM_R64_NE BOM_R64_SE BOM_R64_SW BOM_R64_NW BOM_ROCI BOM_POCI BOM_EYE BOM_POS_METHOD BOM_PRES_METHOD NADI_LAT NADI_LON NADI_CAT NADI_WIND NADI_PRES WELLINGTON_LAT WELLINGTON_LON WELLINGTON_WIND WELLINGTON_PRES DS824_LAT DS824_LON DS824_STAGE DS824_WIND DS824_PRES TD9636_LAT TD9636_LON TD9636_STAGE TD9636_WIND TD9636_PRES TD9635_LAT TD9635_LON TD9635_WIND TD9635_PRES TD9635_ROCI NEUMANN_LAT NEUMANN_LON NEUMANN_CLASS NEUMANN_WIND NEUMANN_PRES MLC_LAT MLC_LON MLC_CLASS MLC_WIND MLC_PRES USA_GUST BOM_GUST BOM_GUST_PER REUNION_GUST REUNION_GUST_PER USA_SEAHGT USA_SEARAD_NE USA_SEARAD_SE USA_SEARAD_SW USA_SEARAD_NW STORM_SPEED STORM_DIR
1950064S14166 1950 19 SP MM NOT_NAMED 1950-03-04 12:00:00 TS -14.3000 166.000 main 77 39 O________OO___ jtwc_sh SH171950 -14.3000 166.000 -1 -14.3000 166.000 TC -14.3000 166.000 2 7 148
1950064S14166 1950 19 SP MM NOT_NAMED 1950-03-04 15:00:00 TS -14.6019 166.196 main 39 10 P________PP___ SH171950 -14.6075 166.200 -1 -14.6075 166.200 TC -14.5907 166.187 2 7 147
1950064S14166 1950 19 SP MM NOT_NAMED 1950-03-04 18:00:00 TS -14.8917 166.393 main 15 0 O________OP___ jtwc_sh SH171950 -14.9000 166.400 -1 -14.9000 166.400 TC -14.8750 166.380 2 7 145
1950064S14166 1950 19 SP MM NOT_NAMED 1950-03-04 21:00:00 TS -15.1589 166.594 main 0 0 P________PP___ SH171950 -15.1650 166.600 -1 -15.1650 166.600 TC -15.1469 166.582 2 6 142
1950064S14166 1950 19 SP MM NOT_NAMED 1950-03-05 00:00:00 TS -15.4000 166.800 main 0 0 O________OO___ jtwc_sh SH171950 -15.4000 166.800 -1 -15.4000 166.800 TC -15.4000 166.800 2 6 139
1950064S14166 1950 19 SP MM NOT_NAMED 1950-03-05 03:00:00 TS -15.6149 167.006 main 0 0 P________PP___ SH171950 -15.6075 166.993 -1 -15.6075 166.993 TC -15.6297 167.034 2 6 135
1950064S14166 1950 19 SP MM NOT_NAMED 1950-03-05 06:00:00 TS -15.8125 167.224 main 22 0 O________OP___ jtwc_sh SH171950 -15.8000 167.200 -1 -15.8000 167.200 TC -15.8376 167.273 2 6 131
1950064S14166 1950 19 SP MM NOT_NAMED 1950-03-05 09:00:00 TS -16.0139 167.477 main 10 0 P________PP___ SH171950 -16.0076 167.465 -1 -16.0076 167.465 TC -16.0266 167.500 2 6 130
1950064S14166 1950 19 SP MM NOT_NAMED 1950-03-05 12:00:00 TS -16.2000 167.700 main 10 0 O________OO___ jtwc_sh SH171950 -16.2000 167.700 -1 -16.2000 167.700 TC -16.2000 167.700 2 5 137
1950064S14166 1950 19 SP MM NOT_NAMED 1950-03-05 15:00:00 TS -16.3623 167.811 main 0 0 P________PP___ SH171950 -16.3574 167.815 -1 -16.3574 167.815 TC -16.3720 167.801 2 4 149
1950064S14166 1950 19 SP MM NOT_NAMED 1950-03-05 18:00:00 TS -16.5097 167.894 main 10 10 O________OP___ jtwc_sh SH171950 -16.5000 167.900 -1 -16.5000 167.900 TC -16.5292 167.883 2 4 149
1950064S14166 1950 19 SP MM NOT_NAMED 1950-03-05 21:00:00 TS -16.6622 167.998 main 24 24 P________PP___ SH171950 -16.6573 167.998 -1 -16.6573 167.998 TC -16.6718 167.998 2 4 135
1950064S14166 1950 19 SP MM NOT_NAMED 1950-03-06 00:00:00 TS -16.8000 168.200 main 48 48 O________OO___ jtwc_sh SH171950 -16.8000 168.200 -1 -16.8000 168.200 TC -16.8000 168.200 2 6 114
1950064S14166 1950 19 SP MM NOT_NAMED 1950-03-06 03:00:00 TS -16.9181 168.587 main 91 91 P________PP___ SH171950 -16.9076 168.605 -1 -16.9076 168.605 TC -16.9391 168.552 2 9 105
1950064S14166 1950 19 SP MM NOT_NAMED 1950-03-06 06:00:00 TS -17.0201 169.065 main 145 145 O________OP___ jtwc_sh SH171950 -17.0000 169.100 -1 -17.0000 169.100 TC -17.0604 168.994 2 9 103
1950064S14166 1950 19 SP MM NOT_NAMED 1950-03-06 09:00:00 TS -17.1271 169.525 main 189 189 P________PP___ SH171950 -17.1148 169.542 -1 -17.1148 169.542 TC -17.1515 169.490 2 9 101
1950064S14166 1950 19 SP MM NOT_NAMED 1950-03-06 12:00:00 TS -17.2000 170.000 main 243 243 O________OO___ jtwc_sh SH171950 -17.2000 170.000 -1 -17.2000 170.000 TC -17.2000 170.000 2 9 96
1950064S14166 1950 19 SP MM NOT_NAMED 1950-03-06 15:00:00 TS -17.2259 170.503 main 295 295 P________PP___ SH171950 -17.2300 170.500 -1 -17.2300 170.500 TC -17.2178 170.509 2 10 90
1950064S14166 1950 19 SP MM NOT_NAMED 1950-03-06 18:00:00 TS -17.1968 171.006 main 347 347 O________OP___ jtwc_sh SH171950 -17.2000 171.000 -1 -17.2000 171.000 TC -17.1905 171.018 2 9 84
1950064S14166 1950 19 SP MM NOT_NAMED 1950-03-06 21:00:00 TS -17.1260 171.489 main 397 397 P________PP___ SH171950 -17.1300 171.488 -1 -17.1300 171.488 TC -17.1179 171.493 2 9 77
1950064S14166 1950 19 SP MM NOT_NAMED 1950-03-07 00:00:00 TS -17.0000 171.900 main 438 438 O________OO___ jtwc_sh SH171950 -17.0000 171.900 -1 -17.0000 171.900 TC -17.0000 171.900 2 7 65
1950064S14166 1950 19 SP MM NOT_NAMED 1950-03-07 03:00:00 TS -16.8159 172.187 main 469 469 P________PP___ SH171950 -16.8149 172.187 -1 -16.8149 172.187 TC -16.8180 172.185 2 6 50
1950064S14166 1950 19 SP MM NOT_NAMED 1950-03-07 06:00:00 TS -16.5997 172.401 main 490 490 O________OP___ jtwc_sh SH171950 -16.6000 172.400 -1 -16.6000 172.400 TC -16.5991 172.403 2 6 42
1950064S14166 1950 19 SP MM NOT_NAMED 1950-03-07 09:00:00 TS -16.3835 172.593 main 512 509 P________PP___ SH171950 -16.3849 172.592 -1 -16.3849 172.592 TC -16.3807 172.594 2 6 44
1950064S14166 1950 19 SP MM NOT_NAMED 1950-03-07 12:00:00 TS -16.2000 172.800 main 509 485 O________OO___ jtwc_sh SH171950 -16.2000 172.800 -1 -16.2000 172.800 TC -16.2000 172.800 2 6 56
1950064S14166 1950 19 SP MM NOT_NAMED 1950-03-07 15:00:00 TS -16.0647 173.086 main 485 461 P________PP___ SH171950 -16.0700 173.085 -1 -16.0700 173.085 TC -16.0542 173.087 2 6 70
1950064S14166 1950 19 SP MM NOT_NAMED 1950-03-07 18:00:00 TS -15.9859 173.398 main 461 437 O________OP___ jtwc_sh SH171950 -16.0000 173.400 -1 -16.0000 173.400 TC -15.9576 173.393 2 6 78
1950064S14166 1950 19 SP MM NOT_NAMED 1950-03-07 21:00:00 TS -15.9424 173.706 main 437 403 P________PP___ SH171950 -15.9475 173.708 -1 -15.9475 173.708 TC -15.9323 173.703 2 6 91
1950064S14166 1950 19 SP MM NOT_NAMED 1950-03-08 00:00:00 TS -16.0000 174.000 main 403 365 O________OO___ jtwc_sh SH171950 -16.0000 174.000 -1 -16.0000 174.000 TC -16.0000 174.000 2 6 116
1950064S14166 1950 19 SP MM NOT_NAMED 1950-03-08 03:00:00 TS -16.2039 174.274 main 365 332 P________PP___ SH171950 -16.2049 174.257 -1 -16.2049 174.257 TC -16.2019 174.308 2 7 134
1950064S14166 1950 19 SP MM NOT_NAMED 1950-03-08 06:00:00 TS -16.4967 174.532 main 332 287 O________OP___ jtwc_sh SH171950 -16.5000 174.500 -1 -16.5000 174.500 TC -16.4901 174.596 2 8 141
1950064S14166 1950 19 SP MM NOT_NAMED 1950-03-08 09:00:00 TS -16.8128 174.789 main 287 254 P________PP___ SH171950 -16.8150 174.765 -1 -16.8150 174.765 TC -16.8082 174.836 2 8 143
1950064S14166 1950 19 SP MM NOT_NAMED 1950-03-08 12:00:00 TS -17.1000 175.000 main 254 225 O________OO___ jtwc_sh SH171950 -17.1000 175.000 -1 -17.1000 175.000 TC -17.1000 175.000 2 6 140
1950064S14166 1950 19 SP MM NOT_NAMED 1950-03-08 15:00:00 TS -17.2713 175.189 main 225 212 P________PP___ SH171950 -17.2725 175.218 -1 -17.2725 175.218 TC -17.2690 175.131 2 4 141
1950064S14166 1950 19 SP MM NOT_NAMED 1950-03-08 18:00:00 TS -17.4021 175.258 main 212 212 O________OP___ jtwc_sh SH171950 -17.4000 175.300 -1 -17.4000 175.300 TC -17.4064 175.174 2 3 0
1950064S14166 1950 19 SP MM NOT_NAMED 1950-03-08 21:00:00 TS -17.5368 175.167 main 219 219 P________PP___ SH171950 -17.5348 175.197 -1 -17.5348 175.197 TC -17.5407 175.106 2 5 229
1950064S14166 1950 19 SP MM NOT_NAMED 1950-03-09 00:00:00 TS -17.7000 174.900 main 245 245 O________OO___ jtwc_sh SH171950 -17.7000 174.900 -1 -17.7000 174.900 TC -17.7000 174.900 2 8 239
1950064S14166 1950 19 SP MM NOT_NAMED 1950-03-09 03:00:00 TS -17.9402 174.475 main 285 285 P________PP___ SH171950 -17.9351 174.445 -1 -17.9351 174.445 TC -17.9504 174.534 2 10 241
1950064S14166 1950 19 SP MM NOT_NAMED 1950-03-09 06:00:00 TS -18.2079 173.946 main 349 349 O________OP___ jtwc_sh SH171950 -18.2000 173.900 -1 -18.2000 173.900 TC -18.2236 174.037 2 11 242
1950064S14166 1950 19 SP MM NOT_NAMED 1950-03-09 09:00:00 TS -18.4815 173.424 main 405 405 P________PP___ SH171950 -18.4799 173.400 -1 -18.4799 173.400 TC -18.4848 173.471 2 11 244
1950064S14166 1950 19 SP MM NOT_NAMED 1950-03-09 12:00:00 TS -18.7000 172.900 main 460 460 O________OO___ jtwc_sh SH171950 -18.7000 172.900 -1 -18.7000 172.900 TC -18.7000 172.900 2 10 253
1950064S14166 1950 19 SP MM NOT_NAMED 1950-03-09 15:00:00 TS -18.7807 172.383 main 514 499 P________PP___ SH171950 -18.7724 172.392 -1 -18.7724 172.392 TC -18.7972 172.364 2 10 263
1950064S14166 1950 19 SP MM NOT_NAMED 1950-03-09 18:00:00 TS -18.8168 171.881 main 499 460 O________OP___ jtwc_sh SH171950 -18.8000 171.900 -1 -18.8000 171.900 TC -18.8505 171.844 2 9 264
1950064S14166 1950 19 SP MM NOT_NAMED 1950-03-09 21:00:00 TS -18.8812 171.401 main 460 432 P________PP___ SH171950 -18.8700 171.412 -1 -18.8700 171.412 TC -18.9035 171.377 2 9 258
1950064S14166 1950 19 SP MM NOT_NAMED 1950-03-10 00:00:00 TS -19.0000 171.000 main 432 422 O________OO___ jtwc_sh SH171950 -19.0000 171.000 -1 -19.0000 171.000 TC -19.0000 171.000 2 7 243
1950064S14166 1950 19 SP MM NOT_NAMED 1950-03-10 03:00:00 TS -19.2179 170.699 main 422 422 P________PP___ SH171950 -19.2274 170.690 -1 -19.2274 170.690 TC -19.1990 170.716 2 7 224
1950064S14166 1950 19 SP MM NOT_NAMED 1950-03-10 06:00:00 TS -19.4822 170.509 main 432 432 O________OP___ jtwc_sh SH171950 -19.5000 170.500 -1 -19.5000 170.500 TC -19.4467 170.528 2 6 207
1950064S14166 1950 19 SP MM NOT_NAMED 1950-03-10 09:00:00 TS -19.7403 170.422 main 442 429 P________PP___ SH171950 -19.7499 170.420 -1 -19.7499 170.420 TC -19.7211 170.426 2 5 191
1950064S14166 1950 19 SP MM NOT_NAMED 1950-03-10 12:00:00 TS -20.0000 170.400 main 429 408 O________OO___ jtwc_sh SH171950 -20.0000 170.400 -1 -20.0000 170.400 TC -20.0000 170.400 2 5 190
1950064S14166 1950 19 SP MM NOT_NAMED 1950-03-10 15:00:00 TS -20.2551 170.322 main 402 390 P________PP___ SH171950 -20.2500 170.305 -1 -20.2500 170.305 TC -20.2655 170.355 2 5 188
1950064S14166 1950 19 SP MM NOT_NAMED 1950-03-10 18:00:00 TS -20.5096 170.330 main 390 385 O________OP___ jtwc_sh SH171950 -20.5000 170.300 -1 -20.5000 170.300 TC -20.5287 170.390 2 5 163
1950064S14166 1950 19 SP MM NOT_NAMED 1950-03-10 21:00:00 TS -20.7691 170.483 main 394 394 P________PP___ SH171950 -20.7648 170.460 -1 -20.7648 170.460 TC -20.7777 170.530 2 7 138
1950064S14166 1950 19 SP MM NOT_NAMED 1950-03-11 00:00:00 TS -21.0000 170.800 main 415 415 O________OO___ jtwc_sh SH171950 -21.0000 170.800 -1 -21.0000 170.800 TC -21.0000 170.800 2 8 118
1950064S14166 1950 19 SP MM NOT_NAMED 1950-03-11 03:00:00 TS -21.1633 171.280 main 457 457 P________PP___ SH171950 -21.1652 171.305 -1 -21.1652 171.305 TC -21.1595 171.229 2 10 107
1950064S14166 1950 19 SP MM NOT_NAMED 1950-03-11 06:00:00 TS -21.2980 171.860 main 515 515 O________OP___ jtwc_sh SH171950 -21.3000 171.900 -1 -21.3000 171.900 TC -21.2940 171.781 2 11 104
1950064S14166 1950 19 SP MM NOT_NAMED 1950-03-11 09:00:00 TS -21.4338 172.446 main 564 564 P________PP___ SH171950 -21.4350 172.473 -1 -21.4350 172.473 TC -21.4313 172.392 2 11 106
1950064S14166 1950 19 SP MM NOT_NAMED 1950-03-11 12:00:00 TS -21.6000 173.000 main 595 580 O________OO___ jtwc_sh SH171950 -21.6000 173.000 -1 -21.6000 173.000 TC -21.6000 173.000 2 10 114
1950064S14166 1950 19 SP MM NOT_NAMED 1950-03-11 15:00:00 TS -21.8203 173.399 main 580 574 P________PP___ SH171950 -21.8270 173.393 -1 -21.8270 173.393 TC -21.8070 173.412 2 9 123
1950064S14166 1950 19 SP MM NOT_NAMED 1950-03-11 18:00:00 TS -22.0847 173.808 main 577 564 O________OP___ jtwc_sh SH171950 -22.1000 173.800 -1 -22.1000 173.800 TC -22.0541 173.825 2 10 123
1950064S14166 1950 19 SP MM NOT_NAMED 1950-03-11 21:00:00 TS -22.3625 174.306 main 573 561 P________PP___ SH171950 -22.3690 174.296 -1 -22.3690 174.296 TC -22.3494 174.326 2 13 119
1950064S14166 1950 19 SP MM NOT_NAMED 1950-03-12 00:00:00 TS -22.7000 175.000 main 567 563 O________OO___ jtwc_sh SH171950 -22.7000 175.000 -1 -22.7000 175.000 TC -22.7000 175.000 2 17 116
1950064S14166 1950 19 SP MM NOT_NAMED 1950-03-12 03:00:00 TS -23.1329 175.994 main 571 571 P________PP___ SH171950 -23.1277 176.010 -1 -23.1277 176.010 TC -23.1432 175.963 2 22 114
1950064S14166 1950 19 SP MM NOT_NAMED 1950-03-12 06:00:00 TS -23.6088 177.169 main 597 597 O________OP___ jtwc_sh SH171950 -23.6000 177.200 -1 -23.6000 177.200 TC -23.6264 177.107 2 24 114
1950064S14166 1950 19 SP MM NOT_NAMED 1950-03-12 09:00:00 TS -24.0850 178.377 main 648 648 P________PP___ SH171950 -24.0796 178.392 -1 -24.0796 178.392 TC -24.0958 178.348 2 24 112
1950064S14166 1950 19 SP MM NOT_NAMED 1950-03-12 12:00:00 TS -24.5000 179.600 main 708 708 O________OO___ jtwc_sh SH171950 -24.5000 179.600 -1 -24.5000 179.600 TC -24.5000 179.600 2 23 108
1950064S14166 1950 19 SP MM NOT_NAMED 1950-03-12 15:00:00 TS -24.7970 180.775 main 774 774 P________PP___ SH171950 -24.7941 -179.234 -1 -24.7941 -179.234 TC -24.8028 -179.207 2 22 104
1950064S14166 1950 19 SP MM NOT_NAMED 1950-03-12 18:00:00 TS -25.0064 181.909 main 839 839 O________OP___ jtwc_sh SH171950 -25.0000 -178.100 -1 -25.0000 181.900 TC -25.0193 -178.073 2 21 100
1950064S14166 1950 19 SP MM NOT_NAMED 1950-03-12 21:00:00 TS -25.1665 183.012 main 909 909 P________PP___ SH171950 -25.1616 -176.993 -1 -25.1616 -176.993 TC -25.1763 -176.977 2 20 98
1950064S14166 1950 19 SP MM NOT_NAMED 1950-03-13 00:00:00 TS -25.3000 184.100 main 979 O________OO___ jtwc_sh SH171950 -25.3000 -175.900 -1 -25.3000 184.100 TC -25.3000 -175.900 2 20 98

Digital Typhoon Data and Search

About IBTrACS Database

This database is a web-friendly format of International Best Track Archive for Climate Stewardship (IBTrACS), a global best track data archive curated by NOAA dating back to 1842.

Updated: 2021-10-27